Marcy Colony, South Dakota
Current Conditions -  °F | °C
As of 3:53 PM on Wednesday 22 Oct 2014 (Local Time) from KMHE Reporting Station
NA  
Wind Chill: 57°   Ceiling: NA
Heat Index: 57°   Visibility: 10mi
Dew Point: 55°   Wind: 9mph
Humidity: 93%   Direction: 280°W
Pressure: 29.95"   Gusts: NA
Location:  43.4018°N, 97.9102°W
Report Text: KMHE 222053Z AUTO 28008KT 10SM 14/13 A2995 RMK AO2 RAE01 SLP143 P0000 60028 T01390128 52003 $
Loading
Personal Weather Stations






























Interactive Weather Map
Tropical Storm Tracking
New forecast layout! Learn more

10-Day Weather Forecast

Advertisements
Track Severe Weather on mobile